sensor_id;sensor_type;location;lat;lon;timestamp;P1;durP1;ratioP1;P2;durP2;ratioP2
22778;SDS011;11556;51.194;3.800;2023-07-13T00:01:50;9.45;;;2.55;;
22778;SDS011;11556;51.194;3.800;2023-07-13T00:04:17;8.15;;;2.10;;
22778;SDS011;11556;51.194;3.800;2023-07-13T00:06:44;15.15;;;2.38;;
22778;SDS011;11556;51.194;3.800;2023-07-13T00:09:14;16.95;;;2.40;;
22778;SDS011;11556;51.194;3.800;2023-07-13T00:11:41;15.25;;;2.70;;
22778;SDS011;11556;51.194;3.800;2023-07-13T00:14:08;9.02;;;2.33;;
22778;SDS011;11556;51.194;3.800;2023-07-13T00:16:37;10.15;;;2.88;;
22778;SDS011;11556;51.194;3.800;2023-07-13T00:19:08;10.75;;;2.42;;
22778;SDS011;11556;51.194;3.800;2023-07-13T00:21:35;9.43;;;2.38;;
22778;SDS011;11556;51.194;3.800;2023-07-13T00:24:01;10.43;;;2.38;;
22778;SDS011;11556;51.194;3.800;2023-07-13T00:26:27;11.48;;;2.60;;
22778;SDS011;11556;51.194;3.800;2023-07-13T00:28:53;8.65;;;2.10;;
22778;SDS011;11556;51.194;3.800;2023-07-13T00:31:19;15.75;;;2.30;;
22778;SDS011;11556;51.194;3.800;2023-07-13T00:33:45;10.40;;;2.45;;
22778;SDS011;11556;51.194;3.800;2023-07-13T00:36:11;10.23;;;2.55;;
22778;SDS011;11556;51.194;3.800;2023-07-13T00:38:36;12.38;;;2.20;;
22778;SDS011;11556;51.194;3.800;2023-07-13T00:41:03;12.90;;;2.65;;
22778;SDS011;11556;51.194;3.800;2023-07-13T00:43:29;10.60;;;2.85;;
22778;SDS011;11556;51.194;3.800;2023-07-13T00:48:22;13.43;;;2.65;;
22778;SDS011;11556;51.194;3.800;2023-07-13T00:50:53;9.02;;;2.38;;
22778;SDS011;11556;51.194;3.800;2023-07-13T00:53:21;11.38;;;2.38;;
22778;SDS011;11556;51.194;3.800;2023-07-13T00:55:49;13.15;;;3.08;;
22778;SDS011;11556;51.194;3.800;2023-07-13T00:58:15;12.55;;;2.55;;
22778;SDS011;11556;51.194;3.800;2023-07-13T01:00:41;13.43;;;2.80;;
22778;SDS011;11556;51.194;3.800;2023-07-13T01:03:07;11.35;;;2.92;;
22778;SDS011;11556;51.194;3.800;2023-07-13T01:05:33;14.20;;;3.00;;
22778;SDS011;11556;51.194;3.800;2023-07-13T01:08:01;14.55;;;3.17;;
22778;SDS011;11556;51.194;3.800;2023-07-13T01:10:28;9.35;;;2.80;;
22778;SDS011;11556;51.194;3.800;2023-07-13T01:12:54;15.20;;;2.75;;
22778;SDS011;11556;51.194;3.800;2023-07-13T01:18:06;12.10;;;3.28;;
22778;SDS011;11556;51.194;3.800;2023-07-13T01:20:34;13.63;;;3.53;;
22778;SDS011;11556;51.194;3.800;2023-07-13T01:23:01;15.98;;;3.17;;
22778;SDS011;11556;51.194;3.800;2023-07-13T01:25:35;15.38;;;3.75;;
22778;SDS011;11556;51.194;3.800;2023-07-13T01:28:02;14.75;;;3.90;;
22778;SDS011;11556;51.194;3.800;2023-07-13T01:30:29;12.40;;;3.85;;
22778;SDS011;11556;51.194;3.800;2023-07-13T01:32:56;14.25;;;3.75;;
22778;SDS011;11556;51.194;3.800;2023-07-13T01:35:21;13.80;;;3.95;;
22778;SDS011;11556;51.194;3.800;2023-07-13T01:37:47;18.50;;;4.18;;
22778;SDS011;11556;51.194;3.800;2023-07-13T01:40:12;13.98;;;3.60;;
22778;SDS011;11556;51.194;3.800;2023-07-13T01:42:38;10.73;;;3.50;;
22778;SDS011;11556;51.194;3.800;2023-07-13T01:45:04;24.00;;;4.30;;
22778;SDS011;11556;51.194;3.800;2023-07-13T01:47:30;16.60;;;3.88;;
22778;SDS011;11556;51.194;3.800;2023-07-13T01:49:56;16.17;;;3.75;;
22778;SDS011;11556;51.194;3.800;2023-07-13T01:52:22;11.98;;;3.58;;
22778;SDS011;11556;51.194;3.800;2023-07-13T01:54:48;20.95;;;4.28;;
22778;SDS011;11556;51.194;3.800;2023-07-13T01:57:14;15.77;;;4.43;;
22778;SDS011;11556;51.194;3.800;2023-07-13T01:59:39;13.75;;;3.95;;
22778;SDS011;11556;51.194;3.800;2023-07-13T02:02:05;16.48;;;4.30;;
22778;SDS011;11556;51.194;3.800;2023-07-13T02:04:31;17.63;;;4.18;;
22778;SDS011;11556;51.194;3.800;2023-07-13T02:06:56;19.83;;;3.78;;
22778;SDS011;11556;51.194;3.800;2023-07-13T02:09:22;18.17;;;4.28;;
22778;SDS011;11556;51.194;3.800;2023-07-13T02:11:48;19.77;;;4.60;;
22778;SDS011;11556;51.194;3.800;2023-07-13T02:14:13;16.80;;;4.40;;
22778;SDS011;11556;51.194;3.800;2023-07-13T02:16:40;19.35;;;5.22;;
22778;SDS011;11556;51.194;3.800;2023-07-13T02:19:06;17.67;;;4.22;;
22778;SDS011;11556;51.194;3.800;2023-07-13T02:21:32;19.45;;;5.03;;
22778;SDS011;11556;51.194;3.800;2023-07-13T02:23:58;20.58;;;4.65;;
22778;SDS011;11556;51.194;3.800;2023-07-13T02:26:24;12.07;;;4.50;;
22778;SDS011;11556;51.194;3.800;2023-07-13T02:28:50;14.27;;;4.90;;
22778;SDS011;11556;51.194;3.800;2023-07-13T02:31:16;13.70;;;4.03;;
22778;SDS011;11556;51.194;3.800;2023-07-13T02:33:42;17.35;;;4.18;;
22778;SDS011;11556;51.194;3.800;2023-07-13T02:36:08;20.58;;;4.85;;
22778;SDS011;11556;51.194;3.800;2023-07-13T02:38:35;15.90;;;3.83;;
22778;SDS011;11556;51.194;3.800;2023-07-13T02:41:01;15.93;;;4.63;;
22778;SDS011;11556;51.194;3.800;2023-07-13T02:43:28;20.90;;;4.88;;
22778;SDS011;11556;51.194;3.800;2023-07-13T02:45:54;18.88;;;4.60;;
22778;SDS011;11556;51.194;3.800;2023-07-13T02:48:20;15.70;;;4.57;;
22778;SDS011;11556;51.194;3.800;2023-07-13T02:50:46;13.65;;;4.70;;
22778;SDS011;11556;51.194;3.800;2023-07-13T02:53:11;18.15;;;4.97;;
22778;SDS011;11556;51.194;3.800;2023-07-13T02:55:37;16.35;;;4.30;;
22778;SDS011;11556;51.194;3.800;2023-07-13T02:58:04;13.88;;;4.63;;
22778;SDS011;11556;51.194;3.800;2023-07-13T03:00:30;18.45;;;4.20;;
22778;SDS011;11556;51.194;3.800;2023-07-13T03:02:56;15.38;;;5.20;;
22778;SDS011;11556;51.194;3.800;2023-07-13T03:05:23;21.38;;;4.63;;
22778;SDS011;11556;51.194;3.800;2023-07-13T03:07:49;17.52;;;4.80;;
22778;SDS011;11556;51.194;3.800;2023-07-13T03:10:15;20.25;;;4.88;;
22778;SDS011;11556;51.194;3.800;2023-07-13T03:12:41;18.25;;;4.15;;
22778;SDS011;11556;51.194;3.800;2023-07-13T03:15:07;14.77;;;4.85;;
22778;SDS011;11556;51.194;3.800;2023-07-13T03:17:33;18.08;;;4.43;;
22778;SDS011;11556;51.194;3.800;2023-07-13T03:19:58;17.90;;;5.35;;
22778;SDS011;11556;51.194;3.800;2023-07-13T03:22:24;17.10;;;5.18;;
22778;SDS011;11556;51.194;3.800;2023-07-13T03:24:50;22.23;;;4.88;;
22778;SDS011;11556;51.194;3.800;2023-07-13T03:27:16;25.75;;;5.57;;
22778;SDS011;11556;51.194;3.800;2023-07-13T03:29:42;16.40;;;4.57;;
22778;SDS011;11556;51.194;3.800;2023-07-13T03:32:08;16.10;;;5.07;;
22778;SDS011;11556;51.194;3.800;2023-07-13T03:34:34;19.52;;;4.95;;
22778;SDS011;11556;51.194;3.800;2023-07-13T03:37:00;19.00;;;5.22;;
22778;SDS011;11556;51.194;3.800;2023-07-13T03:39:25;17.30;;;5.00;;
22778;SDS011;11556;51.194;3.800;2023-07-13T03:41:51;19.42;;;5.05;;
22778;SDS011;11556;51.194;3.800;2023-07-13T03:44:17;25.20;;;5.13;;
22778;SDS011;11556;51.194;3.800;2023-07-13T03:46:43;21.88;;;5.32;;
22778;SDS011;11556;51.194;3.800;2023-07-13T03:49:09;19.02;;;5.00;;
22778;SDS011;11556;51.194;3.800;2023-07-13T03:51:36;19.63;;;4.85;;
22778;SDS011;11556;51.194;3.800;2023-07-13T03:54:02;14.55;;;5.05;;
22778;SDS011;11556;51.194;3.800;2023-07-13T03:56:28;18.27;;;5.43;;
22778;SDS011;11556;51.194;3.800;2023-07-13T03:58:54;19.60;;;5.28;;
22778;SDS011;11556;51.194;3.800;2023-07-13T04:01:20;21.77;;;5.15;;
22778;SDS011;11556;51.194;3.800;2023-07-13T04:03:47;21.83;;;5.20;;
22778;SDS011;11556;51.194;3.800;2023-07-13T04:06:23;16.92;;;5.05;;
22778;SDS011;11556;51.194;3.800;2023-07-13T04:08:54;17.20;;;5.20;;
22778;SDS011;11556;51.194;3.800;2023-07-13T04:11:22;22.42;;;5.15;;
22778;SDS011;11556;51.194;3.800;2023-07-13T04:13:50;13.63;;;4.72;;
22778;SDS011;11556;51.194;3.800;2023-07-13T04:16:17;16.17;;;4.82;;
22778;SDS011;11556;51.194;3.800;2023-07-13T04:18:43;13.25;;;5.22;;
22778;SDS011;11556;51.194;3.800;2023-07-13T04:21:10;16.60;;;4.97;;
22778;SDS011;11556;51.194;3.800;2023-07-13T04:23:37;14.65;;;5.70;;
22778;SDS011;11556;51.194;3.800;2023-07-13T04:26:03;15.18;;;5.30;;
22778;SDS011;11556;51.194;3.800;2023-07-13T04:28:28;15.85;;;5.00;;
22778;SDS011;11556;51.194;3.800;2023-07-13T04:30:55;18.42;;;4.80;;
22778;SDS011;11556;51.194;3.800;2023-07-13T04:33:21;17.17;;;5.03;;
22778;SDS011;11556;51.194;3.800;2023-07-13T04:35:50;19.42;;;5.10;;
22778;SDS011;11556;51.194;3.800;2023-07-13T04:38:21;15.57;;;4.88;;
22778;SDS011;11556;51.194;3.800;2023-07-13T04:40:49;18.17;;;5.30;;
22778;SDS011;11556;51.194;3.800;2023-07-13T04:43:16;17.08;;;5.60;;
22778;SDS011;11556;51.194;3.800;2023-07-13T04:45:41;22.95;;;5.20;;
22778;SDS011;11556;51.194;3.800;2023-07-13T04:48:07;18.88;;;5.10;;
22778;SDS011;11556;51.194;3.800;2023-07-13T04:50:33;16.17;;;5.28;;
22778;SDS011;11556;51.194;3.800;2023-07-13T04:53:02;19.30;;;6.18;;
22778;SDS011;11556;51.194;3.800;2023-07-13T04:55:29;17.35;;;5.82;;
22778;SDS011;11556;51.194;3.800;2023-07-13T04:57:55;17.83;;;5.68;;
22778;SDS011;11556;51.194;3.800;2023-07-13T05:00:23;13.35;;;5.25;;
22778;SDS011;11556;51.194;3.800;2023-07-13T05:02:49;19.05;;;5.55;;
22778;SDS011;11556;51.194;3.800;2023-07-13T05:05:15;13.68;;;5.40;;
22778;SDS011;11556;51.194;3.800;2023-07-13T05:07:41;17.23;;;5.47;;
22778;SDS011;11556;51.194;3.800;2023-07-13T05:10:06;22.08;;;5.38;;
22778;SDS011;11556;51.194;3.800;2023-07-13T05:12:33;14.85;;;5.20;;
22778;SDS011;11556;51.194;3.800;2023-07-13T05:14:58;18.50;;;5.05;;
22778;SDS011;11556;51.194;3.800;2023-07-13T05:17:24;18.20;;;5.28;;
22778;SDS011;11556;51.194;3.800;2023-07-13T05:19:50;15.15;;;4.85;;
22778;SDS011;11556;51.194;3.800;2023-07-13T05:22:15;14.30;;;4.82;;
22778;SDS011;11556;51.194;3.800;2023-07-13T05:24:41;14.30;;;5.20;;
22778;SDS011;11556;51.194;3.800;2023-07-13T05:27:06;14.98;;;4.53;;
22778;SDS011;11556;51.194;3.800;2023-07-13T05:29:32;15.93;;;4.60;;
22778;SDS011;11556;51.194;3.800;2023-07-13T05:31:58;12.10;;;4.45;;
22778;SDS011;11556;51.194;3.800;2023-07-13T05:34:23;15.35;;;4.72;;
22778;SDS011;11556;51.194;3.800;2023-07-13T05:36:49;13.07;;;3.90;;
22778;SDS011;11556;51.194;3.800;2023-07-13T05:39:15;16.65;;;4.40;;
22778;SDS011;11556;51.194;3.800;2023-07-13T05:41:41;14.52;;;4.47;;
22778;SDS011;11556;51.194;3.800;2023-07-13T05:44:06;15.48;;;4.28;;
22778;SDS011;11556;51.194;3.800;2023-07-13T05:46:32;13.73;;;4.30;;
22778;SDS011;11556;51.194;3.800;2023-07-13T05:48:58;15.27;;;4.88;;
22778;SDS011;11556;51.194;3.800;2023-07-13T05:51:24;15.93;;;3.95;;
22778;SDS011;11556;51.194;3.800;2023-07-13T05:53:49;12.50;;;4.40;;
22778;SDS011;11556;51.194;3.800;2023-07-13T05:56:15;15.35;;;4.32;;
22778;SDS011;11556;51.194;3.800;2023-07-13T05:58:41;18.50;;;4.10;;
22778;SDS011;11556;51.194;3.800;2023-07-13T06:01:09;16.50;;;4.18;;
22778;SDS011;11556;51.194;3.800;2023-07-13T06:03:36;13.15;;;4.32;;
22778;SDS011;11556;51.194;3.800;2023-07-13T06:06:05;15.15;;;4.50;;
22778;SDS011;11556;51.194;3.800;2023-07-13T06:08:32;16.50;;;4.47;;
22778;SDS011;11556;51.194;3.800;2023-07-13T06:11:18;14.45;;;4.15;;
22778;SDS011;11556;51.194;3.800;2023-07-13T06:13:46;15.73;;;4.25;;
22778;SDS011;11556;51.194;3.800;2023-07-13T06:16:12;15.02;;;4.25;;
22778;SDS011;11556;51.194;3.800;2023-07-13T06:18:39;13.88;;;3.78;;
22778;SDS011;11556;51.194;3.800;2023-07-13T06:21:06;21.27;;;4.30;;
22778;SDS011;11556;51.194;3.800;2023-07-13T06:23:36;16.70;;;4.72;;
22778;SDS011;11556;51.194;3.800;2023-07-13T06:26:03;20.80;;;4.18;;
22778;SDS011;11556;51.194;3.800;2023-07-13T06:28:29;13.43;;;3.83;;
22778;SDS011;11556;51.194;3.800;2023-07-13T06:30:56;13.77;;;3.63;;
22778;SDS011;11556;51.194;3.800;2023-07-13T06:33:23;13.48;;;3.72;;
22778;SDS011;11556;51.194;3.800;2023-07-13T06:35:49;9.73;;;3.47;;
22778;SDS011;11556;51.194;3.800;2023-07-13T06:38:15;15.30;;;3.88;;
22778;SDS011;11556;51.194;3.800;2023-07-13T06:40:40;11.77;;;3.55;;
22778;SDS011;11556;51.194;3.800;2023-07-13T06:43:06;15.15;;;3.63;;
22778;SDS011;11556;51.194;3.800;2023-07-13T06:45:34;17.00;;;3.58;;
22778;SDS011;11556;51.194;3.800;2023-07-13T06:48:05;10.65;;;3.20;;
22778;SDS011;11556;51.194;3.800;2023-07-13T06:50:31;15.27;;;4.13;;
22778;SDS011;11556;51.194;3.800;2023-07-13T06:52:56;13.60;;;3.90;;
22778;SDS011;11556;51.194;3.800;2023-07-13T06:55:24;12.35;;;3.42;;
22778;SDS011;11556;51.194;3.800;2023-07-13T06:57:50;12.82;;;3.55;;
22778;SDS011;11556;51.194;3.800;2023-07-13T07:00:15;13.23;;;3.55;;
22778;SDS011;11556;51.194;3.800;2023-07-13T07:02:41;13.60;;;3.30;;
22778;SDS011;11556;51.194;3.800;2023-07-13T07:05:07;13.63;;;3.70;;
22778;SDS011;11556;51.194;3.800;2023-07-13T07:07:32;13.88;;;3.67;;
22778;SDS011;11556;51.194;3.800;2023-07-13T07:09:58;10.02;;;3.22;;
22778;SDS011;11556;51.194;3.800;2023-07-13T07:12:24;11.52;;;3.40;;
22778;SDS011;11556;51.194;3.800;2023-07-13T07:14:49;14.02;;;3.95;;
22778;SDS011;11556;51.194;3.800;2023-07-13T07:17:15;12.18;;;4.10;;
22778;SDS011;11556;51.194;3.800;2023-07-13T07:19:41;13.60;;;3.90;;
22778;SDS011;11556;51.194;3.800;2023-07-13T07:22:06;9.38;;;3.67;;
22778;SDS011;11556;51.194;3.800;2023-07-13T07:24:32;13.07;;;3.38;;
22778;SDS011;11556;51.194;3.800;2023-07-13T07:26:58;11.20;;;3.10;;
22778;SDS011;11556;51.194;3.800;2023-07-13T07:29:24;10.05;;;3.15;;
22778;SDS011;11556;51.194;3.800;2023-07-13T07:31:51;10.88;;;3.20;;
22778;SDS011;11556;51.194;3.800;2023-07-13T07:34:17;11.38;;;2.85;;
22778;SDS011;11556;51.194;3.800;2023-07-13T07:36:42;13.27;;;3.00;;
22778;SDS011;11556;51.194;3.800;2023-07-13T07:39:08;8.80;;;2.90;;
22778;SDS011;11556;51.194;3.800;2023-07-13T07:41:34;8.75;;;2.28;;
22778;SDS011;11556;51.194;3.800;2023-07-13T07:43:59;8.07;;;2.78;;
22778;SDS011;11556;51.194;3.800;2023-07-13T07:46:25;8.15;;;2.38;;
22778;SDS011;11556;51.194;3.800;2023-07-13T07:48:51;12.68;;;2.47;;
22778;SDS011;11556;51.194;3.800;2023-07-13T07:51:16;5.95;;;2.58;;
22778;SDS011;11556;51.194;3.800;2023-07-13T07:53:42;7.07;;;2.53;;
22778;SDS011;11556;51.194;3.800;2023-07-13T07:56:07;7.47;;;2.33;;
22778;SDS011;11556;51.194;3.800;2023-07-13T07:58:35;8.55;;;2.20;;
22778;SDS011;11556;51.194;3.800;2023-07-13T08:01:06;8.80;;;2.70;;
22778;SDS011;11556;51.194;3.800;2023-07-13T08:03:32;7.22;;;2.60;;
22778;SDS011;11556;51.194;3.800;2023-07-13T08:05:58;7.18;;;2.58;;
22778;SDS011;11556;51.194;3.800;2023-07-13T08:08:23;8.50;;;2.28;;
22778;SDS011;11556;51.194;3.800;2023-07-13T08:10:49;8.88;;;2.33;;
22778;SDS011;11556;51.194;3.800;2023-07-13T08:13:15;8.52;;;2.30;;
22778;SDS011;11556;51.194;3.800;2023-07-13T08:15:41;4.10;;;1.88;;
22778;SDS011;11556;51.194;3.800;2023-07-13T08:18:07;6.90;;;1.95;;
22778;SDS011;11556;51.194;3.800;2023-07-13T08:20:36;12.00;;;1.85;;
22778;SDS011;11556;51.194;3.800;2023-07-13T08:23:05;7.60;;;1.70;;
22778;SDS011;11556;51.194;3.800;2023-07-13T08:25:31;6.88;;;1.95;;
22778;SDS011;11556;51.194;3.800;2023-07-13T08:27:57;6.20;;;1.80;;
22778;SDS011;11556;51.194;3.800;2023-07-13T08:30:23;4.55;;;1.70;;
22778;SDS011;11556;51.194;3.800;2023-07-13T08:32:48;6.40;;;1.95;;
22778;SDS011;11556;51.194;3.800;2023-07-13T08:35:14;4.70;;;2.10;;
22778;SDS011;11556;51.194;3.800;2023-07-13T08:37:41;6.13;;;1.70;;
22778;SDS011;11556;51.194;3.800;2023-07-13T08:40:08;7.15;;;1.80;;
22778;SDS011;11556;51.194;3.800;2023-07-13T08:42:45;7.82;;;2.10;;
22778;SDS011;11556;51.194;3.800;2023-07-13T08:45:24;6.97;;;1.92;;
22778;SDS011;11556;51.194;3.800;2023-07-13T08:48:03;7.30;;;2.22;;
22778;SDS011;11556;51.194;3.800;2023-07-13T08:50:35;6.22;;;1.88;;
22778;SDS011;11556;51.194;3.800;2023-07-13T08:53:30;6.95;;;1.80;;
22778;SDS011;11556;51.194;3.800;2023-07-13T08:56:01;5.03;;;1.70;;
22778;SDS011;11556;51.194;3.800;2023-07-13T08:58:29;4.50;;;1.75;;
22778;SDS011;11556;51.194;3.800;2023-07-13T09:01:02;3.70;;;1.63;;
22778;SDS011;11556;51.194;3.800;2023-07-13T09:03:51;5.97;;;1.80;;
22778;SDS011;11556;51.194;3.800;2023-07-13T09:07:05;4.68;;;2.17;;
22778;SDS011;11556;51.194;3.800;2023-07-13T09:09:28;8.68;;;2.17;;
22778;SDS011;11556;51.194;3.800;2023-07-13T09:14:54;5.10;;;1.60;;
22778;SDS011;11556;51.194;3.800;2023-07-13T09:17:24;4.20;;;1.80;;
22778;SDS011;11556;51.194;3.800;2023-07-13T09:19:57;7.75;;;2.05;;
22778;SDS011;11556;51.194;3.800;2023-07-13T09:22:28;5.57;;;2.17;;
22778;SDS011;11556;51.194;3.800;2023-07-13T09:25:05;5.20;;;1.92;;
22778;SDS011;11556;51.194;3.800;2023-07-13T09:27:44;8.52;;;1.92;;
22778;SDS011;11556;51.194;3.800;2023-07-13T09:30:20;5.28;;;1.77;;
22778;SDS011;11556;51.194;3.800;2023-07-13T09:32:51;6.70;;;1.92;;
22778;SDS011;11556;51.194;3.800;2023-07-13T09:35:23;5.40;;;1.92;;
22778;SDS011;11556;51.194;3.800;2023-07-13T09:37:56;5.18;;;1.95;;
22778;SDS011;11556;51.194;3.800;2023-07-13T09:40:46;5.10;;;1.73;;
22778;SDS011;11556;51.194;3.800;2023-07-13T09:43:24;4.72;;;1.77;;
22778;SDS011;11556;51.194;3.800;2023-07-13T09:45:50;5.18;;;2.00;;
22778;SDS011;11556;51.194;3.800;2023-07-13T09:48:16;5.38;;;1.55;;
22778;SDS011;11556;51.194;3.800;2023-07-13T09:50:42;9.88;;;1.98;;
22778;SDS011;11556;51.194;3.800;2023-07-13T09:53:16;4.82;;;1.55;;
22778;SDS011;11556;51.194;3.800;2023-07-13T09:55:44;4.93;;;1.83;;
22778;SDS011;11556;51.194;3.800;2023-07-13T09:58:12;4.25;;;1.58;;
22778;SDS011;11556;51.194;3.800;2023-07-13T10:00:41;5.90;;;1.73;;
22778;SDS011;11556;51.194;3.800;2023-07-13T10:05:44;6.70;;;1.70;;
22778;SDS011;11556;51.194;3.800;2023-07-13T10:08:18;3.10;;;1.38;;
22778;SDS011;11556;51.194;3.800;2023-07-13T10:10:59;3.28;;;1.75;;
22778;SDS011;11556;51.194;3.800;2023-07-13T10:13:33;5.55;;;1.83;;
22778;SDS011;11556;51.194;3.800;2023-07-13T10:16:10;5.28;;;1.90;;
22778;SDS011;11556;51.194;3.800;2023-07-13T10:18:46;8.18;;;2.80;;
22778;SDS011;11556;51.194;3.800;2023-07-13T10:21:19;8.63;;;2.80;;
22778;SDS011;11556;51.194;3.800;2023-07-13T10:23:50;7.60;;;3.15;;
22778;SDS011;11556;51.194;3.800;2023-07-13T10:26:23;6.30;;;2.70;;
22778;SDS011;11556;51.194;3.800;2023-07-13T10:28:52;12.15;;;3.78;;
22778;SDS011;11556;51.194;3.800;2023-07-13T10:31:21;11.30;;;4.22;;
22778;SDS011;11556;51.194;3.800;2023-07-13T10:33:47;7.85;;;3.67;;
22778;SDS011;11556;51.194;3.800;2023-07-13T10:36:31;9.45;;;3.45;;
22778;SDS011;11556;51.194;3.800;2023-07-13T10:39:02;8.88;;;3.35;;
22778;SDS011;11556;51.194;3.800;2023-07-13T10:41:30;5.82;;;2.90;;
22778;SDS011;11556;51.194;3.800;2023-07-13T10:43:58;6.20;;;3.05;;
22778;SDS011;11556;51.194;3.800;2023-07-13T10:46:26;7.20;;;3.42;;
22778;SDS011;11556;51.194;3.800;2023-07-13T10:49:00;6.65;;;3.00;;
22778;SDS011;11556;51.194;3.800;2023-07-13T10:51:29;6.07;;;2.70;;
22778;SDS011;11556;51.194;3.800;2023-07-13T10:56:43;5.32;;;2.38;;
22778;SDS011;11556;51.194;3.800;2023-07-13T10:59:24;7.13;;;2.65;;
22778;SDS011;11556;51.194;3.800;2023-07-13T11:01:56;6.82;;;2.85;;
22778;SDS011;11556;51.194;3.800;2023-07-13T11:04:25;6.88;;;2.55;;
22778;SDS011;11556;51.194;3.800;2023-07-13T11:06:58;8.70;;;2.85;;
22778;SDS011;11556;51.194;3.800;2023-07-13T11:09:40;5.70;;;2.58;;
22778;SDS011;11556;51.194;3.800;2023-07-13T11:12:54;6.22;;;2.60;;
22778;SDS011;11556;51.194;3.800;2023-07-13T11:15:13;5.55;;;2.55;;
22778;SDS011;11556;51.194;3.800;2023-07-13T11:17:47;5.57;;;3.08;;
22778;SDS011;11556;51.194;3.800;2023-07-13T11:22:48;8.98;;;3.15;;
22778;SDS011;11556;51.194;3.800;2023-07-13T11:27:52;8.35;;;2.83;;
22778;SDS011;11556;51.194;3.800;2023-07-13T11:33:08;6.10;;;3.20;;
22778;SDS011;11556;51.194;3.800;2023-07-13T11:35:43;5.93;;;3.05;;
22778;SDS011;11556;51.194;3.800;2023-07-13T11:38:20;8.15;;;3.00;;
22778;SDS011;11556;51.194;3.800;2023-07-13T11:40:50;9.13;;;3.35;;
22778;SDS011;11556;51.194;3.800;2023-07-13T11:43:18;7.53;;;2.33;;
22778;SDS011;11556;51.194;3.800;2023-07-13T11:45:44;5.30;;;2.50;;
22778;SDS011;11556;51.194;3.800;2023-07-13T11:51:02;4.45;;;2.08;;
22778;SDS011;11556;51.194;3.800;2023-07-13T11:53:38;4.13;;;1.80;;
22778;SDS011;11556;51.194;3.800;2023-07-13T11:56:10;4.97;;;1.52;;
22778;SDS011;11556;51.194;3.800;2023-07-13T11:58:35;3.38;;;1.60;;
22778;SDS011;11556;51.194;3.800;2023-07-13T12:01:02;4.80;;;1.70;;
22778;SDS011;11556;51.194;3.800;2023-07-13T12:03:29;3.97;;;1.80;;
22778;SDS011;11556;51.194;3.800;2023-07-13T12:06:01;5.57;;;1.70;;
22778;SDS011;11556;51.194;3.800;2023-07-13T12:08:30;3.67;;;1.60;;
22778;SDS011;11556;51.194;3.800;2023-07-13T12:11:00;5.00;;;1.77;;
22778;SDS011;11556;51.194;3.800;2023-07-13T12:13:35;3.47;;;1.63;;
22778;SDS011;11556;51.194;3.800;2023-07-13T12:16:07;3.53;;;2.00;;
22778;SDS011;11556;51.194;3.800;2023-07-13T12:18:39;3.58;;;2.10;;
22778;SDS011;11556;51.194;3.800;2023-07-13T12:21:09;4.97;;;2.17;;
22778;SDS011;11556;51.194;3.800;2023-07-13T12:23:39;5.25;;;1.90;;
22778;SDS011;11556;51.194;3.800;2023-07-13T12:26:05;4.35;;;2.13;;
22778;SDS011;11556;51.194;3.800;2023-07-13T12:28:35;7.13;;;2.00;;
22778;SDS011;11556;51.194;3.800;2023-07-13T12:31:22;6.75;;;1.98;;
22778;SDS011;11556;51.194;3.800;2023-07-13T12:34:07;4.22;;;1.90;;
22778;SDS011;11556;51.194;3.800;2023-07-13T12:36:35;2.53;;;1.52;;
22778;SDS011;11556;51.194;3.800;2023-07-13T12:41:45;3.58;;;1.63;;
22778;SDS011;11556;51.194;3.800;2023-07-13T12:44:12;4.20;;;1.67;;
22778;SDS011;11556;51.194;3.800;2023-07-13T12:46:50;3.08;;;1.50;;
22778;SDS011;11556;51.194;3.800;2023-07-13T12:49:26;4.97;;;2.00;;
22778;SDS011;11556;51.194;3.800;2023-07-13T12:51:58;2.97;;;1.58;;
22778;SDS011;11556;51.194;3.800;2023-07-13T12:54:25;5.45;;;1.50;;
22778;SDS011;11556;51.194;3.800;2023-07-13T12:56:52;3.38;;;1.58;;
22778;SDS011;11556;51.194;3.800;2023-07-13T12:59:21;4.18;;;1.48;;
22778;SDS011;11556;51.194;3.800;2023-07-13T13:01:48;5.95;;;1.77;;
22778;SDS011;11556;51.194;3.800;2023-07-13T13:04:15;2.92;;;1.42;;
22778;SDS011;11556;51.194;3.800;2023-07-13T13:06:41;4.25;;;1.40;;
22778;SDS011;11556;51.194;3.800;2023-07-13T13:09:12;3.60;;;1.50;;
22778;SDS011;11556;51.194;3.800;2023-07-13T13:11:40;4.47;;;1.27;;
22778;SDS011;11556;51.194;3.800;2023-07-13T13:14:06;4.15;;;1.70;;
22778;SDS011;11556;51.194;3.800;2023-07-13T13:16:33;4.22;;;1.63;;
22778;SDS011;11556;51.194;3.800;2023-07-13T13:19:10;3.05;;;1.30;;
22778;SDS011;11556;51.194;3.800;2023-07-13T13:21:45;3.50;;;1.35;;
22778;SDS011;11556;51.194;3.800;2023-07-13T13:24:16;4.13;;;1.45;;
22778;SDS011;11556;51.194;3.800;2023-07-13T13:26:45;5.57;;;1.60;;
22778;SDS011;11556;51.194;3.800;2023-07-13T13:29:15;4.10;;;1.33;;
22778;SDS011;11556;51.194;3.800;2023-07-13T13:31:43;3.55;;;1.50;;
22778;SDS011;11556;51.194;3.800;2023-07-13T13:34:10;5.03;;;1.50;;
22778;SDS011;11556;51.194;3.800;2023-07-13T13:36:38;5.28;;;1.52;;
22778;SDS011;11556;51.194;3.800;2023-07-13T13:39:11;3.17;;;1.88;;
22778;SDS011;11556;51.194;3.800;2023-07-13T13:42:01;5.90;;;1.40;;
22778;SDS011;11556;51.194;3.800;2023-07-13T13:44:27;3.03;;;1.75;;
22778;SDS011;11556;51.194;3.800;2023-07-13T13:46:53;4.07;;;1.27;;
22778;SDS011;11556;51.194;3.800;2023-07-13T13:49:25;2.58;;;1.40;;
22778;SDS011;11556;51.194;3.800;2023-07-13T13:54:19;3.95;;;1.30;;
22778;SDS011;11556;51.194;3.800;2023-07-13T13:56:46;7.55;;;1.70;;
22778;SDS011;11556;51.194;3.800;2023-07-13T13:59:13;4.75;;;1.55;;
22778;SDS011;11556;51.194;3.800;2023-07-13T14:01:39;4.75;;;1.38;;
22778;SDS011;11556;51.194;3.800;2023-07-13T14:04:06;3.35;;;1.38;;
22778;SDS011;11556;51.194;3.800;2023-07-13T14:06:39;3.58;;;1.65;;
22778;SDS011;11556;51.194;3.800;2023-07-13T14:09:05;4.22;;;1.20;;
22778;SDS011;11556;51.194;3.800;2023-07-13T14:11:36;3.22;;;1.83;;
22778;SDS011;11556;51.194;3.800;2023-07-13T14:14:02;2.83;;;1.30;;
22778;SDS011;11556;51.194;3.800;2023-07-13T14:16:30;2.03;;;1.17;;
22778;SDS011;11556;51.194;3.800;2023-07-13T14:18:59;4.90;;;1.75;;
22778;SDS011;11556;51.194;3.800;2023-07-13T14:21:26;5.30;;;1.50;;
22778;SDS011;11556;51.194;3.800;2023-07-13T14:23:53;4.30;;;1.35;;
22778;SDS011;11556;51.194;3.800;2023-07-13T14:26:20;3.42;;;1.42;;
22778;SDS011;11556;51.194;3.800;2023-07-13T14:28:48;3.30;;;1.40;;
22778;SDS011;11556;51.194;3.800;2023-07-13T14:31:24;3.38;;;1.05;;
22778;SDS011;11556;51.194;3.800;2023-07-13T14:33:53;3.40;;;1.40;;
22778;SDS011;11556;51.194;3.800;2023-07-13T14:36:29;3.88;;;1.38;;
22778;SDS011;11556;51.194;3.800;2023-07-13T14:38:58;4.53;;;1.20;;
22778;SDS011;11556;51.194;3.800;2023-07-13T14:41:25;2.13;;;1.27;;
22778;SDS011;11556;51.194;3.800;2023-07-13T14:43:51;1.65;;;1.00;;
22778;SDS011;11556;51.194;3.800;2023-07-13T14:46:28;2.75;;;0.98;;
22778;SDS011;11556;51.194;3.800;2023-07-13T14:49:02;2.00;;;1.00;;
22778;SDS011;11556;51.194;3.800;2023-07-13T14:51:35;4.32;;;1.23;;
22778;SDS011;11556;51.194;3.800;2023-07-13T14:54:03;2.28;;;0.98;;
22778;SDS011;11556;51.194;3.800;2023-07-13T14:56:30;1.52;;;1.00;;
22778;SDS011;11556;51.194;3.800;2023-07-13T14:58:56;3.03;;;1.15;;
22778;SDS011;11556;51.194;3.800;2023-07-13T15:01:22;3.38;;;0.90;;
22778;SDS011;11556;51.194;3.800;2023-07-13T15:03:48;3.00;;;1.13;;
22778;SDS011;11556;51.194;3.800;2023-07-13T15:06:16;2.47;;;0.90;;
22778;SDS011;11556;51.194;3.800;2023-07-13T15:08:44;2.97;;;1.00;;
22778;SDS011;11556;51.194;3.800;2023-07-13T15:11:10;1.95;;;0.98;;
22778;SDS011;11556;51.194;3.800;2023-07-13T15:13:39;2.47;;;1.35;;
22778;SDS011;11556;51.194;3.800;2023-07-13T15:16:21;4.68;;;1.17;;
22778;SDS011;11556;51.194;3.800;2023-07-13T15:18:49;2.83;;;1.27;;